sensor_id;sensor_type;location;lat;lon;timestamp;pressure;altitude;pressure_sealevel;temperature;humidity
63954;BME280;50128;52.094;5.232;2023-03-05T00:01:08;100871.0;;;-2.51;91.32
63954;BME280;50128;52.094;5.232;2023-03-05T00:02:46;100866.0;;;-2.45;90.6
63954;BME280;50128;52.094;5.232;2023-03-05T00:04:22;100864.0;;;-2.59;90.76
63954;BME280;50128;52.094;5.232;2023-03-05T00:05:58;100870.0;;;-2.54;91.02
63954;BME280;50128;52.094;5.232;2023-03-05T00:09:12;100861.0;;;-2.43;90.16
63954;BME280;50128;52.094;5.232;2023-03-05T00:10:54;100865.0;;;-2.52;91.0
63954;BME280;50128;52.094;5.232;2023-03-05T00:12:31;100860.0;;;-2.44;90.6
63954;BME280;50128;52.094;5.232;2023-03-05T00:15:45;100855.0;;;-2.66;91.23
63954;BME280;50128;52.094;5.232;2023-03-05T00:17:21;100856.0;;;-2.63;92.17
63954;BME280;50128;52.094;5.232;2023-03-05T00:18:58;100853.0;;;-2.63;91.89
63954;BME280;50128;52.094;5.232;2023-03-05T00:20:35;100845.0;;;-2.57;91.8
63954;BME280;50128;52.094;5.232;2023-03-05T00:23:48;100847.0;;;-2.61;91.69
63954;BME280;50128;52.094;5.232;2023-03-05T00:25:26;100848.0;;;-2.68;91.85
63954;BME280;50128;52.094;5.232;2023-03-05T00:27:02;100843.0;;;-2.63;91.5
63954;BME280;50128;52.094;5.232;2023-03-05T00:30:15;100850.0;;;-2.7;91.84
63954;BME280;50128;52.094;5.232;2023-03-05T00:31:53;100844.0;;;-2.64;91.49
63954;BME280;50128;52.094;5.232;2023-03-05T00:33:29;100842.0;;;-2.71;92.1
63954;BME280;50128;52.094;5.232;2023-03-05T00:36:43;100845.0;;;-2.67;91.29
63954;BME280;50128;52.094;5.232;2023-03-05T00:38:21;100839.0;;;-2.61;91.1
63954;BME280;50128;52.094;5.232;2023-03-05T00:39:57;100838.0;;;-2.7;91.39
63954;BME280;50128;52.094;5.232;2023-03-05T00:41:33;100835.0;;;-2.7;91.42
63954;BME280;50128;52.094;5.232;2023-03-05T00:44:46;100831.0;;;-2.77;92.02
63954;BME280;50128;52.094;5.232;2023-03-05T00:46:22;100830.0;;;-2.86;92.17
63954;BME280;50128;52.094;5.232;2023-03-05T00:47:59;100833.0;;;-2.8;92.29
63954;BME280;50128;52.094;5.232;2023-03-05T00:51:13;100833.0;;;-2.76;92.19
63954;BME280;50128;52.094;5.232;2023-03-05T00:52:50;100828.0;;;-2.69;91.74
63954;BME280;50128;52.094;5.232;2023-03-05T00:54:27;100820.0;;;-2.68;91.76
63954;BME280;50128;52.094;5.232;2023-03-05T00:57:40;100825.0;;;-2.8;91.98
63954;BME280;50128;52.094;5.232;2023-03-05T00:59:16;100828.0;;;-2.75;92.81
63954;BME280;50128;52.094;5.232;2023-03-05T01:00:56;100826.0;;;-2.8;91.93
63954;BME280;50128;52.094;5.232;2023-03-05T01:02:32;100820.0;;;-2.78;92.44
63954;BME280;50128;52.094;5.232;2023-03-05T01:05:45;100819.0;;;-2.79;92.65
63954;BME280;50128;52.094;5.232;2023-03-05T01:07:21;100817.0;;;-2.81;92.92
63954;BME280;50128;52.094;5.232;2023-03-05T01:08:57;100815.0;;;-2.88;93.48
63954;BME280;50128;52.094;5.232;2023-03-05T01:12:09;100810.0;;;-2.82;93.12
63954;BME280;50128;52.094;5.232;2023-03-05T01:13:45;100809.0;;;-2.77;92.85
63954;BME280;50128;52.094;5.232;2023-03-05T01:15:23;100808.0;;;-2.83;92.99
63954;BME280;50128;52.094;5.232;2023-03-05T01:18:37;100800.0;;;-2.81;92.74
63954;BME280;50128;52.094;5.232;2023-03-05T01:20:19;100802.0;;;-2.75;92.09
63954;BME280;50128;52.094;5.232;2023-03-05T01:21:55;100796.0;;;-2.85;92.11
63954;BME280;50128;52.094;5.232;2023-03-05T01:23:32;100797.0;;;-2.94;92.96
63954;BME280;50128;52.094;5.232;2023-03-05T01:26:47;100792.0;;;-3.01;92.81
63954;BME280;50128;52.094;5.232;2023-03-05T01:28:23;100787.0;;;-3.06;92.91
63954;BME280;50128;52.094;5.232;2023-03-05T01:30:00;100791.0;;;-3.12;92.34
63954;BME280;50128;52.094;5.232;2023-03-05T01:33:12;100791.0;;;-3.26;93.39
63954;BME280;50128;52.094;5.232;2023-03-05T01:34:49;100787.0;;;-3.25;93.47
63954;BME280;50128;52.094;5.232;2023-03-05T01:36:25;100783.0;;;-3.34;94.43
63954;BME280;50128;52.094;5.232;2023-03-05T01:38:02;100780.0;;;-3.51;94.99
63954;BME280;50128;52.094;5.232;2023-03-05T01:41:15;100776.0;;;-3.43;94.8
63954;BME280;50128;52.094;5.232;2023-03-05T01:42:57;100770.0;;;-3.6;95.48
63954;BME280;50128;52.094;5.232;2023-03-05T01:44:35;100764.0;;;-3.68;95.83
63954;BME280;50128;52.094;5.232;2023-03-05T01:48:19;100763.0;;;-3.82;95.63
63954;BME280;50128;52.094;5.232;2023-03-05T01:49:57;100758.0;;;-3.89;95.53
63954;BME280;50128;52.094;5.232;2023-03-05T01:51:36;100755.0;;;-3.96;95.77
63954;BME280;50128;52.094;5.232;2023-03-05T01:53:16;100751.0;;;-4.01;96.41
63954;BME280;50128;52.094;5.232;2023-03-05T01:54:54;100751.0;;;-3.95;96.89
63954;BME280;50128;52.094;5.232;2023-03-05T01:58:13;100749.0;;;-4.01;97.9
63954;BME280;50128;52.094;5.232;2023-03-05T01:59:51;100743.0;;;-3.97;98.2
63954;BME280;50128;52.094;5.232;2023-03-05T02:01:35;100741.0;;;-3.93;98.6
63954;BME280;50128;52.094;5.232;2023-03-05T02:03:18;100739.0;;;-3.84;98.94
63954;BME280;50128;52.094;5.232;2023-03-05T02:06:40;100733.0;;;-3.82;99.17
63954;BME280;50128;52.094;5.232;2023-03-05T02:08:20;100732.0;;;-3.77;99.0
63954;BME280;50128;52.094;5.232;2023-03-05T02:09:57;100731.0;;;-3.79;99.32
63954;BME280;50128;52.094;5.232;2023-03-05T02:11:34;100727.0;;;-3.79;100.0
63954;BME280;50128;52.094;5.232;2023-03-05T02:14:52;100726.0;;;-3.72;99.54
63954;BME280;50128;52.094;5.232;2023-03-05T02:16:29;100720.0;;;-3.73;99.75
63954;BME280;50128;52.094;5.232;2023-03-05T02:18:08;100722.0;;;-3.7;99.98
63954;BME280;50128;52.094;5.232;2023-03-05T02:21:28;100713.0;;;-3.63;99.94
63954;BME280;50128;52.094;5.232;2023-03-05T02:23:11;100711.0;;;-3.65;99.94
63954;BME280;50128;52.094;5.232;2023-03-05T02:24:48;100706.0;;;-3.6;100.0
63954;BME280;50128;52.094;5.232;2023-03-05T02:26:26;100710.0;;;-3.53;99.5
63954;BME280;50128;52.094;5.232;2023-03-05T02:29:46;100710.0;;;-3.41;99.17
63954;BME280;50128;52.094;5.232;2023-03-05T02:31:23;100711.0;;;-3.38;98.77
63954;BME280;50128;52.094;5.232;2023-03-05T02:33:01;100703.0;;;-3.25;97.98
63954;BME280;50128;52.094;5.232;2023-03-05T02:34:38;100700.0;;;-3.15;97.12
63954;BME280;50128;52.094;5.232;2023-03-05T02:37:52;100699.0;;;-3.07;96.67
63954;BME280;50128;52.094;5.232;2023-03-05T02:39:29;100694.0;;;-3.13;96.29
63954;BME280;50128;52.094;5.232;2023-03-05T02:41:06;100698.0;;;-3.27;97.33
63954;BME280;50128;52.094;5.232;2023-03-05T02:44:21;100695.0;;;-3.23;97.3
63954;BME280;50128;52.094;5.232;2023-03-05T02:45:58;100697.0;;;-3.16;97.01
63954;BME280;50128;52.094;5.232;2023-03-05T02:47:34;100692.0;;;-3.13;96.53
63954;BME280;50128;52.094;5.232;2023-03-05T02:49:10;100686.0;;;-3.19;96.66
63954;BME280;50128;52.094;5.232;2023-03-05T02:52:23;100689.0;;;-3.09;96.28
63954;BME280;50128;52.094;5.232;2023-03-05T02:53:59;100682.0;;;-3.13;96.41
63954;BME280;50128;52.094;5.232;2023-03-05T02:55:36;100675.0;;;-3.0;95.86
63954;BME280;50128;52.094;5.232;2023-03-05T02:58:49;100673.0;;;-3.08;95.81
63954;BME280;50128;52.094;5.232;2023-03-05T03:00:25;100674.0;;;-3.12;95.91
63954;BME280;50128;52.094;5.232;2023-03-05T03:02:02;100660.0;;;-3.21;96.78
63954;BME280;50128;52.094;5.232;2023-03-05T03:05:16;100662.0;;;-3.22;97.27
63954;BME280;50128;52.094;5.232;2023-03-05T03:06:53;100659.0;;;-3.24;96.76
63954;BME280;50128;52.094;5.232;2023-03-05T03:08:29;100651.0;;;-3.22;96.54
63954;BME280;50128;52.094;5.232;2023-03-05T03:10:06;100652.0;;;-3.23;96.96
63954;BME280;50128;52.094;5.232;2023-03-05T03:13:18;100645.0;;;-3.25;96.66
63954;BME280;50128;52.094;5.232;2023-03-05T03:14:54;100643.0;;;-3.38;97.29
63954;BME280;50128;52.094;5.232;2023-03-05T03:16:32;100644.0;;;-3.43;97.73
63954;BME280;50128;52.094;5.232;2023-03-05T03:19:46;100642.0;;;-3.35;97.09
63954;BME280;50128;52.094;5.232;2023-03-05T03:21:24;100636.0;;;-3.32;97.17
63954;BME280;50128;52.094;5.232;2023-03-05T03:23:00;100633.0;;;-3.41;97.14
63954;BME280;50128;52.094;5.232;2023-03-05T03:26:14;100628.0;;;-3.24;96.68
63954;BME280;50128;52.094;5.232;2023-03-05T03:27:51;100623.0;;;-3.39;97.58
63954;BME280;50128;52.094;5.232;2023-03-05T03:29:28;100620.0;;;-3.37;97.4
63954;BME280;50128;52.094;5.232;2023-03-05T03:31:05;100616.0;;;-3.26;97.27
63954;BME280;50128;52.094;5.232;2023-03-05T03:34:18;100618.0;;;-3.3;96.81
63954;BME280;50128;52.094;5.232;2023-03-05T03:35:55;100620.0;;;-3.4;97.28
63954;BME280;50128;52.094;5.232;2023-03-05T03:37:32;100613.0;;;-3.4;97.83
63954;BME280;50128;52.094;5.232;2023-03-05T03:40:46;100608.0;;;-3.38;97.91
63954;BME280;50128;52.094;5.232;2023-03-05T03:42:22;100610.0;;;-3.28;97.48
63954;BME280;50128;52.094;5.232;2023-03-05T03:43:59;100608.0;;;-3.3;97.5
63954;BME280;50128;52.094;5.232;2023-03-05T03:45:39;100605.0;;;-3.36;97.85
63954;BME280;50128;52.094;5.232;2023-03-05T03:48:53;100606.0;;;-3.36;98.09
63954;BME280;50128;52.094;5.232;2023-03-05T03:50:30;100601.0;;;-3.35;98.53
63954;BME280;50128;52.094;5.232;2023-03-05T03:52:06;100602.0;;;-3.26;98.02
63954;BME280;50128;52.094;5.232;2023-03-05T03:55:19;100599.0;;;-3.32;97.8
63954;BME280;50128;52.094;5.232;2023-03-05T03:56:55;100594.0;;;-3.36;98.35
63954;BME280;50128;52.094;5.232;2023-03-05T03:58:31;100592.0;;;-3.35;98.73
63954;BME280;50128;52.094;5.232;2023-03-05T04:01:46;100596.0;;;-3.32;98.82
63954;BME280;50128;52.094;5.232;2023-03-05T04:03:22;100590.0;;;-3.31;98.72
63954;BME280;50128;52.094;5.232;2023-03-05T04:04:58;100590.0;;;-3.3;98.79
63954;BME280;50128;52.094;5.232;2023-03-05T04:06:34;100587.0;;;-3.24;98.54
63954;BME280;50128;52.094;5.232;2023-03-05T04:09:46;100586.0;;;-3.23;98.13
63954;BME280;50128;52.094;5.232;2023-03-05T04:11:23;100585.0;;;-3.26;98.38
63954;BME280;50128;52.094;5.232;2023-03-05T04:13:00;100586.0;;;-3.23;97.99
63954;BME280;50128;52.094;5.232;2023-03-05T04:16:14;100594.0;;;-3.09;97.71
63954;BME280;50128;52.094;5.232;2023-03-05T04:17:50;100592.0;;;-3.03;97.14
63954;BME280;50128;52.094;5.232;2023-03-05T04:19:26;100586.0;;;-2.93;97.09
63954;BME280;50128;52.094;5.232;2023-03-05T04:22:39;100583.0;;;-3.14;98.74
63954;BME280;50128;52.094;5.232;2023-03-05T04:24:17;100580.0;;;-3.29;100.0
63954;BME280;50128;52.094;5.232;2023-03-05T04:25:53;100574.0;;;-3.32;100.0
63954;BME280;50128;52.094;5.232;2023-03-05T04:27:29;100570.0;;;-3.33;100.0
63954;BME280;50128;52.094;5.232;2023-03-05T04:30:41;100568.0;;;-3.43;100.0
63954;BME280;50128;52.094;5.232;2023-03-05T04:32:17;100565.0;;;-3.33;100.0
63954;BME280;50128;52.094;5.232;2023-03-05T04:33:54;100562.0;;;-3.43;100.0
63954;BME280;50128;52.094;5.232;2023-03-05T04:37:07;100560.0;;;-3.46;100.0
63954;BME280;50128;52.094;5.232;2023-03-05T04:38:43;100560.0;;;-3.49;100.0
63954;BME280;50128;52.094;5.232;2023-03-05T04:40:20;100561.0;;;-3.47;100.0
63954;BME280;50128;52.094;5.232;2023-03-05T04:43:33;100553.0;;;-3.43;100.0
63954;BME280;50128;52.094;5.232;2023-03-05T04:45:10;100552.0;;;-3.46;100.0
63954;BME280;50128;52.094;5.232;2023-03-05T04:46:47;100558.0;;;-3.39;100.0
63954;BME280;50128;52.094;5.232;2023-03-05T04:48:23;100555.0;;;-3.36;100.0
63954;BME280;50128;52.094;5.232;2023-03-05T04:51:36;100556.0;;;-3.44;100.0
63954;BME280;50128;52.094;5.232;2023-03-05T04:53:12;100551.0;;;-3.35;100.0
63954;BME280;50128;52.094;5.232;2023-03-05T04:54:48;100547.0;;;-3.47;100.0
63954;BME280;50128;52.094;5.232;2023-03-05T04:58:01;100548.0;;;-3.4;100.0
63954;BME280;50128;52.094;5.232;2023-03-05T04:59:38;100545.0;;;-3.42;100.0
63954;BME280;50128;52.094;5.232;2023-03-05T05:01:14;100545.0;;;-3.47;100.0
63954;BME280;50128;52.094;5.232;2023-03-05T05:04:28;100541.0;;;-3.5;100.0
63954;BME280;50128;52.094;5.232;2023-03-05T05:06:06;100539.0;;;-3.58;100.0
63954;BME280;50128;52.094;5.232;2023-03-05T05:07:43;100540.0;;;-3.47;100.0
63954;BME280;50128;52.094;5.232;2023-03-05T05:09:19;100531.0;;;-3.48;100.0
63954;BME280;50128;52.094;5.232;2023-03-05T05:12:36;100532.0;;;-3.54;100.0
63954;BME280;50128;52.094;5.232;2023-03-05T05:14:13;100528.0;;;-3.53;100.0
63954;BME280;50128;52.094;5.232;2023-03-05T05:15:49;100530.0;;;-3.47;100.0
63954;BME280;50128;52.094;5.232;2023-03-05T05:19:02;100523.0;;;-3.63;100.0
63954;BME280;50128;52.094;5.232;2023-03-05T05:20:38;100517.0;;;-3.53;100.0
63954;BME280;50128;52.094;5.232;2023-03-05T05:22:14;100514.0;;;-3.54;100.0
63954;BME280;50128;52.094;5.232;2023-03-05T05:25:27;100516.0;;;-3.55;100.0
63954;BME280;50128;52.094;5.232;2023-03-05T05:27:03;100515.0;;;-3.62;100.0
63954;BME280;50128;52.094;5.232;2023-03-05T05:28:40;100514.0;;;-3.63;100.0
63954;BME280;50128;52.094;5.232;2023-03-05T05:30:16;100514.0;;;-3.55;100.0
63954;BME280;50128;52.094;5.232;2023-03-05T05:33:29;100512.0;;;-3.63;100.0
63954;BME280;50128;52.094;5.232;2023-03-05T05:35:06;100509.0;;;-3.55;100.0
63954;BME280;50128;52.094;5.232;2023-03-05T05:36:43;100509.0;;;-3.64;100.0
63954;BME280;50128;52.094;5.232;2023-03-05T05:39:57;100510.0;;;-3.57;100.0
63954;BME280;50128;52.094;5.232;2023-03-05T05:41:34;100507.0;;;-3.63;100.0
63954;BME280;50128;52.094;5.232;2023-03-05T05:43:10;100505.0;;;-3.66;100.0
63954;BME280;50128;52.094;5.232;2023-03-05T05:46:23;100505.0;;;-3.68;100.0
63954;BME280;50128;52.094;5.232;2023-03-05T05:48:00;100506.0;;;-3.71;100.0
63954;BME280;50128;52.094;5.232;2023-03-05T05:49:36;100501.0;;;-3.68;100.0
63954;BME280;50128;52.094;5.232;2023-03-05T05:51:18;100495.0;;;-3.64;100.0
63954;BME280;50128;52.094;5.232;2023-03-05T05:54:32;100494.0;;;-3.66;100.0
63954;BME280;50128;52.094;5.232;2023-03-05T05:56:10;100490.0;;;-3.57;100.0
63954;BME280;50128;52.094;5.232;2023-03-05T05:57:47;100493.0;;;-3.55;100.0
63954;BME280;50128;52.094;5.232;2023-03-05T06:00:59;100491.0;;;-3.43;100.0
63954;BME280;50128;52.094;5.232;2023-03-05T06:02:37;100491.0;;;-3.45;100.0
63954;BME280;50128;52.094;5.232;2023-03-05T06:04:13;100487.0;;;-3.46;100.0
63954;BME280;50128;52.094;5.232;2023-03-05T06:05:49;100489.0;;;-3.55;100.0
63954;BME280;50128;52.094;5.232;2023-03-05T06:09:02;100487.0;;;-3.48;100.0
63954;BME280;50128;52.094;5.232;2023-03-05T06:12:15;100490.0;;;-3.5;100.0
63954;BME280;50128;52.094;5.232;2023-03-05T06:15:29;100484.0;;;-3.54;100.0
63954;BME280;50128;52.094;5.232;2023-03-05T06:17:05;100483.0;;;-3.54;100.0
63954;BME280;50128;52.094;5.232;2023-03-05T06:18:42;100480.0;;;-3.53;100.0
63954;BME280;50128;52.094;5.232;2023-03-05T06:21:56;100481.0;;;-3.64;100.0
63954;BME280;50128;52.094;5.232;2023-03-05T06:23:32;100484.0;;;-3.51;100.0
63954;BME280;50128;52.094;5.232;2023-03-05T06:25:09;100488.0;;;-3.55;100.0
63954;BME280;50128;52.094;5.232;2023-03-05T06:26:46;100486.0;;;-3.51;100.0
63954;BME280;50128;52.094;5.232;2023-03-05T06:29:59;100485.0;;;-3.61;100.0
63954;BME280;50128;52.094;5.232;2023-03-05T06:31:36;100485.0;;;-3.67;100.0
63954;BME280;50128;52.094;5.232;2023-03-05T06:33:14;100486.0;;;-3.7;100.0
63954;BME280;50128;52.094;5.232;2023-03-05T06:36:27;100481.0;;;-3.71;100.0
63954;BME280;50128;52.094;5.232;2023-03-05T06:38:05;100485.0;;;-3.73;100.0
63954;BME280;50128;52.094;5.232;2023-03-05T06:39:43;100493.0;;;-3.54;100.0
63954;BME280;50128;52.094;5.232;2023-03-05T06:41:22;100488.0;;;-3.77;100.0
63954;BME280;50128;52.094;5.232;2023-03-05T06:44:37;100492.0;;;-3.82;100.0
63954;BME280;50128;52.094;5.232;2023-03-05T06:46:16;100492.0;;;-3.79;100.0
63954;BME280;50128;52.094;5.232;2023-03-05T06:47:53;100494.0;;;-3.83;100.0
63954;BME280;50128;52.094;5.232;2023-03-05T06:51:12;100491.0;;;-3.84;100.0
63954;BME280;50128;52.094;5.232;2023-03-05T06:52:49;100494.0;;;-3.85;100.0
63954;BME280;50128;52.094;5.232;2023-03-05T06:54:25;100494.0;;;-3.82;100.0
63954;BME280;50128;52.094;5.232;2023-03-05T06:56:01;100488.0;;;-3.84;100.0
63954;BME280;50128;52.094;5.232;2023-03-05T06:59:15;100490.0;;;-3.81;100.0
63954;BME280;50128;52.094;5.232;2023-03-05T07:00:51;100489.0;;;-3.75;100.0
63954;BME280;50128;52.094;5.232;2023-03-05T07:02:28;100488.0;;;-3.83;100.0
63954;BME280;50128;52.094;5.232;2023-03-05T07:05:41;100486.0;;;-3.81;100.0
63954;BME280;50128;52.094;5.232;2023-03-05T07:07:18;100483.0;;;-3.78;100.0
63954;BME280;50128;52.094;5.232;2023-03-05T07:08:55;100481.0;;;-3.76;100.0
63954;BME280;50128;52.094;5.232;2023-03-05T07:12:13;100477.0;;;-3.77;100.0
63954;BME280;50128;52.094;5.232;2023-03-05T07:13:49;100480.0;;;-3.74;100.0
63954;BME280;50128;52.094;5.232;2023-03-05T07:15:26;100483.0;;;-3.74;100.0
63954;BME280;50128;52.094;5.232;2023-03-05T07:17:02;100483.0;;;-3.74;100.0
63954;BME280;50128;52.094;5.232;2023-03-05T07:20:17;100478.0;;;-3.67;100.0
63954;BME280;50128;52.094;5.232;2023-03-05T07:21:53;100481.0;;;-3.63;100.0
63954;BME280;50128;52.094;5.232;2023-03-05T07:23:30;100480.0;;;-3.66;100.0
63954;BME280;50128;52.094;5.232;2023-03-05T07:26:44;100483.0;;;-3.63;100.0
63954;BME280;50128;52.094;5.232;2023-03-05T07:28:20;100481.0;;;-3.58;100.0
63954;BME280;50128;52.094;5.232;2023-03-05T07:29:57;100480.0;;;-3.57;100.0
63954;BME280;50128;52.094;5.232;2023-03-05T07:31:33;100478.0;;;-3.52;100.0
63954;BME280;50128;52.094;5.232;2023-03-05T07:34:46;100480.0;;;-3.45;100.0
63954;BME280;50128;52.094;5.232;2023-03-05T07:36:22;100480.0;;;-3.39;100.0
63954;BME280;50128;52.094;5.232;2023-03-05T07:37:59;100477.0;;;-3.38;100.0
63954;BME280;50128;52.094;5.232;2023-03-05T07:41:13;100478.0;;;-3.38;100.0
63954;BME280;50128;52.094;5.232;2023-03-05T07:42:51;100477.0;;;-3.4;100.0
63954;BME280;50128;52.094;5.232;2023-03-05T07:44:27;100478.0;;;-3.33;100.0
63954;BME280;50128;52.094;5.232;2023-03-05T07:47:41;100476.0;;;-3.37;100.0
63954;BME280;50128;52.094;5.232;2023-03-05T07:49:18;100472.0;;;-3.3;100.0
63954;BME280;50128;52.094;5.232;2023-03-05T07:51:00;100475.0;;;-3.3;100.0
63954;BME280;50128;52.094;5.232;2023-03-05T07:52:41;100472.0;;;-3.15;100.0
63954;BME280;50128;52.094;5.232;2023-03-05T07:55:53;100473.0;;;-3.21;100.0
63954;BME280;50128;52.094;5.232;2023-03-05T07:57:30;100468.0;;;-3.13;100.0
63954;BME280;50128;52.094;5.232;2023-03-05T07:59:09;100471.0;;;-3.14;100.0
63954;BME280;50128;52.094;5.232;2023-03-05T08:00:46;100469.0;;;-3.11;100.0
63954;BME280;50128;52.094;5.232;2023-03-05T08:04:00;100467.0;;;-3.11;100.0
63954;BME280;50128;52.094;5.232;2023-03-05T08:05:38;100459.0;;;-3.09;100.0
63954;BME280;50128;52.094;5.232;2023-03-05T08:07:14;100464.0;;;-3.07;100.0
63954;BME280;50128;52.094;5.232;2023-03-05T08:10:28;100460.0;;;-2.97;100.0
63954;BME280;50128;52.094;5.232;2023-03-05T08:12:05;100463.0;;;-3.09;100.0
63954;BME280;50128;52.094;5.232;2023-03-05T08:13:42;100459.0;;;-3.09;100.0
63954;BME280;50128;52.094;5.232;2023-03-05T08:16:56;100460.0;;;-2.94;100.0
63954;BME280;50128;52.094;5.232;2023-03-05T08:18:32;100459.0;;;-2.88;100.0
63954;BME280;50128;52.094;5.232;2023-03-05T08:20:10;100457.0;;;-2.74;100.0
63954;BME280;50128;52.094;5.232;2023-03-05T08:21:47;100455.0;;;-2.72;100.0
63954;BME280;50128;52.094;5.232;2023-03-05T08:25:01;100455.0;;;-2.75;100.0
63954;BME280;50128;52.094;5.232;2023-03-05T08:26:39;100452.0;;;-2.77;100.0
63954;BME280;50128;52.094;5.232;2023-03-05T08:28:16;100450.0;;;-2.58;98.7
63954;BME280;50128;52.094;5.232;2023-03-05T08:31:29;100446.0;;;-2.69;98.54
63954;BME280;50128;52.094;5.232;2023-03-05T08:33:05;100451.0;;;-2.59;99.82
63954;BME280;50128;52.094;5.232;2023-03-05T08:34:41;100448.0;;;-2.66;98.59
63954;BME280;50128;52.094;5.232;2023-03-05T08:37:55;100444.0;;;-2.58;98.57
63954;BME280;50128;52.094;5.232;2023-03-05T08:39:31;100444.0;;;-2.41;97.43
63954;BME280;50128;52.094;5.232;2023-03-05T08:41:07;100439.0;;;-2.5;98.48
63954;BME280;50128;52.094;5.232;2023-03-05T08:42:43;100439.0;;;-2.48;97.95
63954;BME280;50128;52.094;5.232;2023-03-05T08:45:58;100437.0;;;-2.45;97.79
63954;BME280;50128;52.094;5.232;2023-03-05T08:47:36;100434.0;;;-2.43;98.27
63954;BME280;50128;52.094;5.232;2023-03-05T08:49:13;100433.0;;;-2.37;98.31
63954;BME280;50128;52.094;5.232;2023-03-05T08:52:26;100433.0;;;-2.21;98.31
63954;BME280;50128;52.094;5.232;2023-03-05T08:54:03;100427.0;;;-2.23;96.3
63954;BME280;50128;52.094;5.232;2023-03-05T08:55:40;100423.0;;;-2.31;97.97
63954;BME280;50128;52.094;5.232;2023-03-05T08:57:16;100421.0;;;-2.14;97.54
63954;BME280;50128;52.094;5.232;2023-03-05T09:00:28;100420.0;;;-2.13;96.85
63954;BME280;50128;52.094;5.232;2023-03-05T09:02:05;100420.0;;;-2.06;97.72
63954;BME280;50128;52.094;5.232;2023-03-05T09:03:41;100420.0;;;-2.09;97.17
63954;BME280;50128;52.094;5.232;2023-03-05T09:06:54;100420.0;;;-1.77;95.69
63954;BME280;50128;52.094;5.232;2023-03-05T09:08:32;100418.0;;;-1.86;96.14
63954;BME280;50128;52.094;5.232;2023-03-05T09:10:11;100417.0;;;-1.71;95.37
63954;BME280;50128;52.094;5.232;2023-03-05T09:13:25;100414.0;;;-1.6;94.58
63954;BME280;50128;52.094;5.232;2023-03-05T09:15:02;100415.0;;;-1.76;94.41
63954;BME280;50128;52.094;5.232;2023-03-05T09:16:39;100419.0;;;-1.67;94.29
63954;BME280;50128;52.094;5.232;2023-03-05T09:18:15;100418.0;;;-1.57;92.68
63954;BME280;50128;52.094;5.232;2023-03-05T09:21:27;100418.0;;;-1.67;93.84
63954;BME280;50128;52.094;5.232;2023-03-05T09:23:03;100416.0;;;-1.58;92.99
63954;BME280;50128;52.094;5.232;2023-03-05T09:24:39;100412.0;;;-1.56;91.75
63954;BME280;50128;52.094;5.232;2023-03-05T09:27:54;100417.0;;;-1.76;92.09
63954;BME280;50128;52.094;5.232;2023-03-05T09:29:30;100413.0;;;-1.83;93.65
63954;BME280;50128;52.094;5.232;2023-03-05T09:31:07;100417.0;;;-1.67;93.7
63954;BME280;50128;52.094;5.232;2023-03-05T09:34:20;100415.0;;;-1.52;92.79
63954;BME280;50128;52.094;5.232;2023-03-05T09:35:58;100410.0;;;-1.62;93.39
63954;BME280;50128;52.094;5.232;2023-03-05T09:37:34;100414.0;;;-1.58;92.79
63954;BME280;50128;52.094;5.232;2023-03-05T09:39:12;100411.0;;;-1.5;91.73
63954;BME280;50128;52.094;5.232;2023-03-05T09:42:46;100411.0;;;-1.43;90.76
63954;BME280;50128;52.094;5.232;2023-03-05T09:44:41;100409.0;;;-1.44;89.92
63954;BME280;50128;52.094;5.232;2023-03-05T09:46:29;100414.0;;;-1.43;88.85
63954;BME280;50128;52.094;5.232;2023-03-05T09:48:16;100413.0;;;-1.39;87.95
63954;BME280;50128;52.094;5.232;2023-03-05T09:49:58;100412.0;;;-1.5;87.01
63954;BME280;50128;52.094;5.232;2023-03-05T09:53:22;100405.0;;;-1.54;89.75
63954;BME280;50128;52.094;5.232;2023-03-05T09:55:11;100405.0;;;-1.34;90.06
63954;BME280;50128;52.094;5.232;2023-03-05T09:57:02;100401.0;;;-1.3;88.37
63954;BME280;50128;52.094;5.232;2023-03-05T09:58:41;100400.0;;;-1.29;88.19
63954;BME280;50128;52.094;5.232;2023-03-05T10:00:27;100399.0;;;-1.18;88.18
63954;BME280;50128;52.094;5.232;2023-03-05T10:02:16;100394.0;;;-1.19;89.75
63954;BME280;50128;52.094;5.232;2023-03-05T10:05:46;100390.0;;;-1.03;87.56
63954;BME280;50128;52.094;5.232;2023-03-05T10:07:28;100392.0;;;-0.98;86.9
63954;BME280;50128;52.094;5.232;2023-03-05T10:09:11;100392.0;;;-0.99;87.79
63954;BME280;50128;52.094;5.232;2023-03-05T10:10:52;100389.0;;;-0.86;87.36
63954;BME280;50128;52.094;5.232;2023-03-05T10:14:22;100388.0;;;-0.96;86.66
63954;BME280;50128;52.094;5.232;2023-03-05T10:16:05;100387.0;;;-0.88;86.04
63954;BME280;50128;52.094;5.232;2023-03-05T10:18:15;100386.0;;;-0.94;86.88
63954;BME280;50128;52.094;5.232;2023-03-05T10:20:12;100381.0;;;-0.75;85.55
63954;BME280;50128;52.094;5.232;2023-03-05T10:23:59;100377.0;;;-0.54;85.17
63954;BME280;50128;52.094;5.232;2023-03-05T10:25:51;100373.0;;;-0.43;83.57
63954;BME280;50128;52.094;5.232;2023-03-05T10:27:51;100371.0;;;-0.5;81.99
63954;BME280;50128;52.094;5.232;2023-03-05T10:29:46;100360.0;;;-0.69;83.79
63954;BME280;50128;52.094;5.232;2023-03-05T10:32:01;100363.0;;;-0.38;82.04
63954;BME280;50128;52.094;5.232;2023-03-05T10:33:50;100364.0;;;-0.4;81.08
63954;BME280;50128;52.094;5.232;2023-03-05T10:35:50;100363.0;;;-0.42;80.37
63954;BME280;50128;52.094;5.232;2023-03-05T10:38:16;100362.0;;;-0.44;80.05
63954;BME280;50128;52.094;5.232;2023-03-05T10:40:15;100359.0;;;-0.45;79.22
63954;BME280;50128;52.094;5.232;2023-03-05T10:42:01;100356.0;;;-0.42;78.75
63954;BME280;50128;52.094;5.232;2023-03-05T10:45:33;100355.0;;;-0.47;78.81
63954;BME280;50128;52.094;5.232;2023-03-05T10:47:14;100352.0;;;-0.39;80.11
63954;BME280;50128;52.094;5.232;2023-03-05T10:48:58;100345.0;;;-0.36;79.69
63954;BME280;50128;52.094;5.232;2023-03-05T10:50:40;100347.0;;;-0.26;79.44
63954;BME280;50128;52.094;5.232;2023-03-05T10:52:25;100345.0;;;-0.38;79.03
63954;BME280;50128;52.094;5.232;2023-03-05T10:55:53;100341.0;;;-0.31;78.02
63954;BME280;50128;52.094;5.232;2023-03-05T10:57:30;100341.0;;;-0.28;77.09
63954;BME280;50128;52.094;5.232;2023-03-05T10:59:07;100341.0;;;-0.28;75.64
63954;BME280;50128;52.094;5.232;2023-03-05T11:00:57;100333.0;;;-0.41;76.8
63954;BME280;50128;52.094;5.232;2023-03-05T11:04:33;100332.0;;;-0.34;78.0
63954;BME280;50128;52.094;5.232;2023-03-05T11:06:11;100334.0;;;-0.35;77.69
63954;BME280;50128;52.094;5.232;2023-03-05T11:07:48;100330.0;;;-0.33;75.77
63954;BME280;50128;52.094;5.232;2023-03-05T11:09:26;100325.0;;;-0.47;74.33